sensor_id;sensor_type;location;lat;lon;timestamp;temperature;humidity
8248;DHT22;4164;49.844;8.830;2023-11-19T00:01:36;9.00;99.90
8248;DHT22;4164;49.844;8.830;2023-11-19T00:04:02;9.10;99.90
8248;DHT22;4164;49.844;8.830;2023-11-19T00:06:30;9.10;99.90
8248;DHT22;4164;49.844;8.830;2023-11-19T00:08:55;9.10;99.90
8248;DHT22;4164;49.844;8.830;2023-11-19T00:11:21;9.00;99.90
8248;DHT22;4164;49.844;8.830;2023-11-19T00:13:46;9.10;99.90
8248;DHT22;4164;49.844;8.830;2023-11-19T00:16:12;9.20;99.90
8248;DHT22;4164;49.844;8.830;2023-11-19T00:18:37;9.20;99.90
8248;DHT22;4164;49.844;8.830;2023-11-19T00:21:03;9.20;99.90
8248;DHT22;4164;49.844;8.830;2023-11-19T00:23:29;9.20;99.90
8248;DHT22;4164;49.844;8.830;2023-11-19T00:25:54;9.30;99.90
8248;DHT22;4164;49.844;8.830;2023-11-19T00:28:20;9.20;99.90
8248;DHT22;4164;49.844;8.830;2023-11-19T00:30:45;9.30;99.90
8248;DHT22;4164;49.844;8.830;2023-11-19T00:33:11;9.30;99.90
8248;DHT22;4164;49.844;8.830;2023-11-19T00:35:36;9.20;99.90
8248;DHT22;4164;49.844;8.830;2023-11-19T00:38:02;9.30;99.90
8248;DHT22;4164;49.844;8.830;2023-11-19T00:40:29;9.30;99.90
8248;DHT22;4164;49.844;8.830;2023-11-19T00:42:54;9.30;99.90
8248;DHT22;4164;49.844;8.830;2023-11-19T00:45:20;9.30;99.90
8248;DHT22;4164;49.844;8.830;2023-11-19T00:47:46;9.30;99.90
8248;DHT22;4164;49.844;8.830;2023-11-19T00:50:12;9.30;99.90
8248;DHT22;4164;49.844;8.830;2023-11-19T00:52:38;9.30;99.90
8248;DHT22;4164;49.844;8.830;2023-11-19T00:55:04;9.40;99.90
8248;DHT22;4164;49.844;8.830;2023-11-19T00:57:31;9.40;99.90
8248;DHT22;4164;49.844;8.830;2023-11-19T00:59:58;9.40;99.90
8248;DHT22;4164;49.844;8.830;2023-11-19T01:02:24;9.40;99.90
8248;DHT22;4164;49.844;8.830;2023-11-19T01:04:50;9.50;1.00
8248;DHT22;4164;49.844;8.830;2023-11-19T01:07:15;9.50;1.00
8248;DHT22;4164;49.844;8.830;2023-11-19T01:09:44;9.50;21.50
8248;DHT22;4164;49.844;8.830;2023-11-19T01:12:10;9.50;90.90
8248;DHT22;4164;49.844;8.830;2023-11-19T01:14:36;9.50;65.10
8248;DHT22;4164;49.844;8.830;2023-11-19T01:17:01;9.50;99.90
8248;DHT22;4164;49.844;8.830;2023-11-19T01:19:27;9.60;99.90
8248;DHT22;4164;49.844;8.830;2023-11-19T01:21:56;9.50;17.20
8248;DHT22;4164;49.844;8.830;2023-11-19T01:24:22;9.60;15.80
8248;DHT22;4164;49.844;8.830;2023-11-19T01:26:48;9.50;99.90
8248;DHT22;4164;49.844;8.830;2023-11-19T01:29:14;9.50;99.90
8248;DHT22;4164;49.844;8.830;2023-11-19T01:31:45;9.50;99.90
8248;DHT22;4164;49.844;8.830;2023-11-19T01:34:12;9.50;99.90
8248;DHT22;4164;49.844;8.830;2023-11-19T01:36:37;9.40;99.90
8248;DHT22;4164;49.844;8.830;2023-11-19T01:39:04;9.40;1.00
8248;DHT22;4164;49.844;8.830;2023-11-19T01:41:36;9.40;1.00
8248;DHT22;4164;49.844;8.830;2023-11-19T01:44:06;9.40;1.00
8248;DHT22;4164;49.844;8.830;2023-11-19T01:46:31;9.40;1.00
8248;DHT22;4164;49.844;8.830;2023-11-19T01:48:58;9.40;1.00
8248;DHT22;4164;49.844;8.830;2023-11-19T01:51:24;9.40;1.00
8248;DHT22;4164;49.844;8.830;2023-11-19T01:53:50;9.50;1.00
8248;DHT22;4164;49.844;8.830;2023-11-19T01:56:16;9.50;1.00
8248;DHT22;4164;49.844;8.830;2023-11-19T01:58:44;9.50;1.00
8248;DHT22;4164;49.844;8.830;2023-11-19T02:01:11;9.50;1.00
8248;DHT22;4164;49.844;8.830;2023-11-19T02:03:40;9.50;1.00
8248;DHT22;4164;49.844;8.830;2023-11-19T02:06:06;9.50;1.00
8248;DHT22;4164;49.844;8.830;2023-11-19T02:08:32;9.60;1.00
8248;DHT22;4164;49.844;8.830;2023-11-19T02:10:58;9.60;1.00
8248;DHT22;4164;49.844;8.830;2023-11-19T02:13:26;9.60;1.00
8248;DHT22;4164;49.844;8.830;2023-11-19T02:15:52;9.60;99.90
8248;DHT22;4164;49.844;8.830;2023-11-19T02:18:24;9.70;99.90
8248;DHT22;4164;49.844;8.830;2023-11-19T02:20:53;9.70;99.90
8248;DHT22;4164;49.844;8.830;2023-11-19T02:23:20;9.80;99.90
8248;DHT22;4164;49.844;8.830;2023-11-19T02:26:02;9.70;99.90
8248;DHT22;4164;49.844;8.830;2023-11-19T02:28:32;9.80;99.90
8248;DHT22;4164;49.844;8.830;2023-11-19T02:30:58;9.80;99.90
8248;DHT22;4164;49.844;8.830;2023-11-19T02:33:24;9.80;99.90
8248;DHT22;4164;49.844;8.830;2023-11-19T02:35:50;9.80;99.90
8248;DHT22;4164;49.844;8.830;2023-11-19T02:38:16;9.80;99.90
8248;DHT22;4164;49.844;8.830;2023-11-19T02:40:44;9.80;99.90
8248;DHT22;4164;49.844;8.830;2023-11-19T02:43:10;9.90;99.90
8248;DHT22;4164;49.844;8.830;2023-11-19T02:45:36;9.90;99.90
8248;DHT22;4164;49.844;8.830;2023-11-19T02:48:01;10.00;99.90
8248;DHT22;4164;49.844;8.830;2023-11-19T02:50:27;10.00;99.90
8248;DHT22;4164;49.844;8.830;2023-11-19T02:52:54;10.00;99.90
8248;DHT22;4164;49.844;8.830;2023-11-19T02:55:21;10.00;99.90
8248;DHT22;4164;49.844;8.830;2023-11-19T02:57:49;10.10;99.90
8248;DHT22;4164;49.844;8.830;2023-11-19T03:00:20;10.20;99.90
8248;DHT22;4164;49.844;8.830;2023-11-19T03:02:51;10.20;99.90
8248;DHT22;4164;49.844;8.830;2023-11-19T03:05:34;10.20;66.40
8248;DHT22;4164;49.844;8.830;2023-11-19T03:07:59;10.30;99.90
8248;DHT22;4164;49.844;8.830;2023-11-19T03:10:25;10.30;99.90
8248;DHT22;4164;49.844;8.830;2023-11-19T03:12:51;10.40;22.50
8248;DHT22;4164;49.844;8.830;2023-11-19T03:15:16;10.40;1.00
8248;DHT22;4164;49.844;8.830;2023-11-19T03:17:42;10.40;1.00
8248;DHT22;4164;49.844;8.830;2023-11-19T03:20:10;10.40;1.00
8248;DHT22;4164;49.844;8.830;2023-11-19T03:22:45;10.40;1.00
8248;DHT22;4164;49.844;8.830;2023-11-19T03:25:11;10.40;1.00
8248;DHT22;4164;49.844;8.830;2023-11-19T03:27:37;10.40;1.00
8248;DHT22;4164;49.844;8.830;2023-11-19T03:30:04;10.40;1.00
8248;DHT22;4164;49.844;8.830;2023-11-19T03:32:33;10.40;1.00
8248;DHT22;4164;49.844;8.830;2023-11-19T03:35:01;10.40;91.30
8248;DHT22;4164;49.844;8.830;2023-11-19T03:37:27;10.30;99.90
8248;DHT22;4164;49.844;8.830;2023-11-19T03:39:56;10.40;99.90
8248;DHT22;4164;49.844;8.830;2023-11-19T03:42:25;10.40;99.90
8248;DHT22;4164;49.844;8.830;2023-11-19T03:44:52;10.30;1.00
8248;DHT22;4164;49.844;8.830;2023-11-19T03:47:18;10.20;1.00
8248;DHT22;4164;49.844;8.830;2023-11-19T03:49:50;10.20;1.00
8248;DHT22;4164;49.844;8.830;2023-11-19T03:52:16;10.20;1.00
8248;DHT22;4164;49.844;8.830;2023-11-19T03:54:42;10.20;1.00
8248;DHT22;4164;49.844;8.830;2023-11-19T03:57:08;10.10;1.00
8248;DHT22;4164;49.844;8.830;2023-11-19T03:59:35;10.20;1.00
8248;DHT22;4164;49.844;8.830;2023-11-19T04:02:01;10.20;1.00
8248;DHT22;4164;49.844;8.830;2023-11-19T04:04:28;10.20;1.00
8248;DHT22;4164;49.844;8.830;2023-11-19T04:06:54;10.20;1.00
8248;DHT22;4164;49.844;8.830;2023-11-19T04:09:20;10.20;1.00
8248;DHT22;4164;49.844;8.830;2023-11-19T04:11:45;10.20;1.00
8248;DHT22;4164;49.844;8.830;2023-11-19T04:14:12;10.20;1.00
8248;DHT22;4164;49.844;8.830;2023-11-19T04:16:39;10.20;1.00
8248;DHT22;4164;49.844;8.830;2023-11-19T04:19:04;10.20;1.00
8248;DHT22;4164;49.844;8.830;2023-11-19T04:21:30;10.20;1.00
8248;DHT22;4164;49.844;8.830;2023-11-19T04:23:59;10.30;1.00
8248;DHT22;4164;49.844;8.830;2023-11-19T04:26:24;10.30;1.00
8248;DHT22;4164;49.844;8.830;2023-11-19T04:28:50;10.30;1.00
8248;DHT22;4164;49.844;8.830;2023-11-19T04:31:15;10.30;1.00
8248;DHT22;4164;49.844;8.830;2023-11-19T04:33:44;10.30;1.00
8248;DHT22;4164;49.844;8.830;2023-11-19T04:36:10;10.30;1.00
8248;DHT22;4164;49.844;8.830;2023-11-19T04:38:36;10.30;1.00
8248;DHT22;4164;49.844;8.830;2023-11-19T04:41:04;10.30;1.00
8248;DHT22;4164;49.844;8.830;2023-11-19T04:43:31;10.30;1.00
8248;DHT22;4164;49.844;8.830;2023-11-19T04:45:56;10.30;1.00
8248;DHT22;4164;49.844;8.830;2023-11-19T04:48:23;10.30;1.00
8248;DHT22;4164;49.844;8.830;2023-11-19T04:50:48;10.30;1.00
8248;DHT22;4164;49.844;8.830;2023-11-19T04:53:14;10.40;1.00
8248;DHT22;4164;49.844;8.830;2023-11-19T04:55:41;10.40;1.00
8248;DHT22;4164;49.844;8.830;2023-11-19T04:58:06;10.40;1.00
8248;DHT22;4164;49.844;8.830;2023-11-19T05:00:32;10.40;1.00
8248;DHT22;4164;49.844;8.830;2023-11-19T05:02:58;10.40;1.00
8248;DHT22;4164;49.844;8.830;2023-11-19T05:05:23;10.40;1.00
8248;DHT22;4164;49.844;8.830;2023-11-19T05:07:49;10.50;1.00
8248;DHT22;4164;49.844;8.830;2023-11-19T05:10:15;10.50;1.00
8248;DHT22;4164;49.844;8.830;2023-11-19T05:12:40;10.50;1.00
8248;DHT22;4164;49.844;8.830;2023-11-19T05:15:06;10.50;1.00
8248;DHT22;4164;49.844;8.830;2023-11-19T05:17:33;10.50;1.00
8248;DHT22;4164;49.844;8.830;2023-11-19T05:19:58;10.50;1.00
8248;DHT22;4164;49.844;8.830;2023-11-19T05:22:24;10.60;1.00
8248;DHT22;4164;49.844;8.830;2023-11-19T05:24:49;10.60;1.00
8248;DHT22;4164;49.844;8.830;2023-11-19T05:27:15;10.60;1.00
8248;DHT22;4164;49.844;8.830;2023-11-19T05:29:41;10.60;1.00
8248;DHT22;4164;49.844;8.830;2023-11-19T05:32:08;10.60;1.00
8248;DHT22;4164;49.844;8.830;2023-11-19T05:34:33;10.60;1.00
8248;DHT22;4164;49.844;8.830;2023-11-19T05:36:59;10.60;1.00
8248;DHT22;4164;49.844;8.830;2023-11-19T05:39:25;10.60;1.00
8248;DHT22;4164;49.844;8.830;2023-11-19T05:41:51;10.60;1.00
8248;DHT22;4164;49.844;8.830;2023-11-19T05:44:17;10.70;1.00
8248;DHT22;4164;49.844;8.830;2023-11-19T05:46:43;10.70;1.00
8248;DHT22;4164;49.844;8.830;2023-11-19T05:49:10;10.70;1.00
8248;DHT22;4164;49.844;8.830;2023-11-19T05:51:39;10.70;1.00
8248;DHT22;4164;49.844;8.830;2023-11-19T05:54:07;10.80;1.00
8248;DHT22;4164;49.844;8.830;2023-11-19T05:56:33;10.80;1.00
8248;DHT22;4164;49.844;8.830;2023-11-19T05:58:59;10.80;1.00
8248;DHT22;4164;49.844;8.830;2023-11-19T06:01:33;10.90;1.00
8248;DHT22;4164;49.844;8.830;2023-11-19T06:03:59;10.90;1.00
8248;DHT22;4164;49.844;8.830;2023-11-19T06:06:28;10.90;1.00
8248;DHT22;4164;49.844;8.830;2023-11-19T06:08:54;11.00;1.00
8248;DHT22;4164;49.844;8.830;2023-11-19T06:11:20;11.00;1.00
8248;DHT22;4164;49.844;8.830;2023-11-19T06:13:46;11.00;1.00
8248;DHT22;4164;49.844;8.830;2023-11-19T06:16:13;11.10;1.00
8248;DHT22;4164;49.844;8.830;2023-11-19T06:18:39;11.00;1.00
8248;DHT22;4164;49.844;8.830;2023-11-19T06:21:04;11.00;1.00
8248;DHT22;4164;49.844;8.830;2023-11-19T06:23:30;11.10;1.00
8248;DHT22;4164;49.844;8.830;2023-11-19T06:25:56;11.10;1.00
8248;DHT22;4164;49.844;8.830;2023-11-19T06:28:21;11.00;1.00
8248;DHT22;4164;49.844;8.830;2023-11-19T06:30:47;11.10;1.00
8248;DHT22;4164;49.844;8.830;2023-11-19T06:33:15;11.10;1.00
8248;DHT22;4164;49.844;8.830;2023-11-19T06:35:41;11.10;1.00
8248;DHT22;4164;49.844;8.830;2023-11-19T06:38:06;11.10;1.00
8248;DHT22;4164;49.844;8.830;2023-11-19T06:40:35;11.10;1.00
8248;DHT22;4164;49.844;8.830;2023-11-19T06:43:01;11.10;1.00
8248;DHT22;4164;49.844;8.830;2023-11-19T06:45:28;11.10;1.00
8248;DHT22;4164;49.844;8.830;2023-11-19T06:47:54;11.10;1.00
8248;DHT22;4164;49.844;8.830;2023-11-19T06:50:20;11.10;1.00
8248;DHT22;4164;49.844;8.830;2023-11-19T06:52:46;11.20;1.00
8248;DHT22;4164;49.844;8.830;2023-11-19T06:55:11;11.20;1.00
8248;DHT22;4164;49.844;8.830;2023-11-19T06:57:37;11.20;1.00
8248;DHT22;4164;49.844;8.830;2023-11-19T07:00:03;11.30;1.00
8248;DHT22;4164;49.844;8.830;2023-11-19T07:02:31;11.30;1.00
8248;DHT22;4164;49.844;8.830;2023-11-19T07:04:57;11.40;1.00
8248;DHT22;4164;49.844;8.830;2023-11-19T07:07:22;11.50;1.00
8248;DHT22;4164;49.844;8.830;2023-11-19T07:09:48;11.70;1.00
8248;DHT22;4164;49.844;8.830;2023-11-19T07:12:14;11.70;1.00
8248;DHT22;4164;49.844;8.830;2023-11-19T07:14:40;11.80;99.90
8248;DHT22;4164;49.844;8.830;2023-11-19T07:17:07;11.90;99.90
8248;DHT22;4164;49.844;8.830;2023-11-19T07:19:34;11.90;99.90
8248;DHT22;4164;49.844;8.830;2023-11-19T07:22:00;12.00;99.90
8248;DHT22;4164;49.844;8.830;2023-11-19T07:24:26;12.00;99.90
8248;DHT22;4164;49.844;8.830;2023-11-19T07:26:54;12.00;9.60
8248;DHT22;4164;49.844;8.830;2023-11-19T07:29:20;12.00;1.00
8248;DHT22;4164;49.844;8.830;2023-11-19T07:31:48;12.00;1.00
8248;DHT22;4164;49.844;8.830;2023-11-19T07:34:14;12.00;1.00
8248;DHT22;4164;49.844;8.830;2023-11-19T07:36:40;12.00;1.00
8248;DHT22;4164;49.844;8.830;2023-11-19T07:39:06;11.90;1.00
8248;DHT22;4164;49.844;8.830;2023-11-19T07:41:32;12.00;99.90
8248;DHT22;4164;49.844;8.830;2023-11-19T07:43:57;12.00;96.30
8248;DHT22;4164;49.844;8.830;2023-11-19T07:46:23;11.90;99.90
8248;DHT22;4164;49.844;8.830;2023-11-19T07:48:50;12.00;1.00
8248;DHT22;4164;49.844;8.830;2023-11-19T07:51:16;12.00;1.00
8248;DHT22;4164;49.844;8.830;2023-11-19T07:53:41;12.00;1.00
8248;DHT22;4164;49.844;8.830;2023-11-19T07:56:08;12.00;1.00
8248;DHT22;4164;49.844;8.830;2023-11-19T07:58:33;11.90;1.00
8248;DHT22;4164;49.844;8.830;2023-11-19T08:01:00;11.80;1.00
8248;DHT22;4164;49.844;8.830;2023-11-19T08:03:25;11.80;99.90
8248;DHT22;4164;49.844;8.830;2023-11-19T08:05:51;11.80;99.90
8248;DHT22;4164;49.844;8.830;2023-11-19T08:08:17;12.10;99.90
8248;DHT22;4164;49.844;8.830;2023-11-19T08:10:43;11.80;99.90
8248;DHT22;4164;49.844;8.830;2023-11-19T08:13:13;11.80;99.90
8248;DHT22;4164;49.844;8.830;2023-11-19T08:15:38;11.80;99.90
8248;DHT22;4164;49.844;8.830;2023-11-19T08:18:04;11.80;99.90
8248;DHT22;4164;49.844;8.830;2023-11-19T08:20:30;11.80;99.90
8248;DHT22;4164;49.844;8.830;2023-11-19T08:22:56;11.80;1.00
8248;DHT22;4164;49.844;8.830;2023-11-19T08:25:24;11.80;1.00
8248;DHT22;4164;49.844;8.830;2023-11-19T08:27:50;11.90;1.00
8248;DHT22;4164;49.844;8.830;2023-11-19T08:30:15;11.90;99.90
8248;DHT22;4164;49.844;8.830;2023-11-19T08:32:41;12.00;99.90
8248;DHT22;4164;49.844;8.830;2023-11-19T08:35:07;12.10;1.00
8248;DHT22;4164;49.844;8.830;2023-11-19T08:37:34;12.10;99.90
8248;DHT22;4164;49.844;8.830;2023-11-19T08:40:02;12.20;66.70
8248;DHT22;4164;49.844;8.830;2023-11-19T08:42:28;12.30;99.90
8248;DHT22;4164;49.844;8.830;2023-11-19T08:44:55;12.40;93.70
8248;DHT22;4164;49.844;8.830;2023-11-19T08:47:20;12.60;1.00
8248;DHT22;4164;49.844;8.830;2023-11-19T08:49:48;12.90;1.00
8248;DHT22;4164;49.844;8.830;2023-11-19T08:52:13;12.90;99.90
8248;DHT22;4164;49.844;8.830;2023-11-19T08:54:42;12.90;30.30
8248;DHT22;4164;49.844;8.830;2023-11-19T08:57:11;12.90;63.80
8248;DHT22;4164;49.844;8.830;2023-11-19T08:59:39;12.90;99.90
8248;DHT22;4164;49.844;8.830;2023-11-19T09:02:07;12.70;99.90
8248;DHT22;4164;49.844;8.830;2023-11-19T09:04:34;12.70;99.90
8248;DHT22;4164;49.844;8.830;2023-11-19T09:07:02;12.70;99.90
8248;DHT22;4164;49.844;8.830;2023-11-19T09:09:28;12.70;99.90
8248;DHT22;4164;49.844;8.830;2023-11-19T09:11:55;12.80;99.90
8248;DHT22;4164;49.844;8.830;2023-11-19T09:14:20;12.70;99.90
8248;DHT22;4164;49.844;8.830;2023-11-19T09:16:51;12.70;99.90
8248;DHT22;4164;49.844;8.830;2023-11-19T09:19:17;12.60;1.00
8248;DHT22;4164;49.844;8.830;2023-11-19T09:21:43;12.70;99.90
8248;DHT22;4164;49.844;8.830;2023-11-19T09:24:12;12.80;99.90
8248;DHT22;4164;49.844;8.830;2023-11-19T09:26:37;12.80;36.30
8248;DHT22;4164;49.844;8.830;2023-11-19T09:29:05;12.90;1.00
8248;DHT22;4164;49.844;8.830;2023-11-19T09:31:31;12.80;99.90
8248;DHT22;4164;49.844;8.830;2023-11-19T09:33:57;12.70;99.90
8248;DHT22;4164;49.844;8.830;2023-11-19T09:36:23;12.60;99.90
8248;DHT22;4164;49.844;8.830;2023-11-19T09:38:48;12.60;99.90
8248;DHT22;4164;49.844;8.830;2023-11-19T09:41:17;12.60;1.00
8248;DHT22;4164;49.844;8.830;2023-11-19T09:43:45;12.50;99.90
8248;DHT22;4164;49.844;8.830;2023-11-19T09:46:14;12.60;1.00
8248;DHT22;4164;49.844;8.830;2023-11-19T09:48:41;12.90;1.00
8248;DHT22;4164;49.844;8.830;2023-11-19T09:51:11;12.70;1.00
8248;DHT22;4164;49.844;8.830;2023-11-19T09:53:37;12.80;1.00
8248;DHT22;4164;49.844;8.830;2023-11-19T09:56:04;12.80;1.00
8248;DHT22;4164;49.844;8.830;2023-11-19T09:58:31;12.80;69.90
8248;DHT22;4164;49.844;8.830;2023-11-19T10:00:57;12.90;37.40
8248;DHT22;4164;49.844;8.830;2023-11-19T10:03:25;12.90;6.70
8248;DHT22;4164;49.844;8.830;2023-11-19T10:05:55;13.00;40.60
8248;DHT22;4164;49.844;8.830;2023-11-19T10:08:21;13.10;1.00
8248;DHT22;4164;49.844;8.830;2023-11-19T10:10:47;13.60;1.00
8248;DHT22;4164;49.844;8.830;2023-11-19T10:13:13;13.40;1.00
8248;DHT22;4164;49.844;8.830;2023-11-19T10:15:40;13.20;1.00
8248;DHT22;4164;49.844;8.830;2023-11-19T10:18:06;13.10;1.00
8248;DHT22;4164;49.844;8.830;2023-11-19T10:20:36;13.00;1.00
8248;DHT22;4164;49.844;8.830;2023-11-19T10:23:05;13.10;1.00
8248;DHT22;4164;49.844;8.830;2023-11-19T10:25:30;14.50;1.00
8248;DHT22;4164;49.844;8.830;2023-11-19T10:27:57;13.20;1.00
8248;DHT22;4164;49.844;8.830;2023-11-19T10:30:27;13.50;1.00
8248;DHT22;4164;49.844;8.830;2023-11-19T10:33:07;14.40;1.00
8248;DHT22;4164;49.844;8.830;2023-11-19T10:35:54;15.80;99.90
8248;DHT22;4164;49.844;8.830;2023-11-19T10:38:22;16.20;1.00
8248;DHT22;4164;49.844;8.830;2023-11-19T10:40:48;17.70;1.00
8248;DHT22;4164;49.844;8.830;2023-11-19T10:43:14;19.10;99.90
8248;DHT22;4164;49.844;8.830;2023-11-19T10:45:40;20.10;99.90
8248;DHT22;4164;49.844;8.830;2023-11-19T10:48:06;20.10;99.90
8248;DHT22;4164;49.844;8.830;2023-11-19T10:50:37;21.40;21.80
8248;DHT22;4164;49.844;8.830;2023-11-19T10:53:03;20.60;1.00
8248;DHT22;4164;49.844;8.830;2023-11-19T10:55:31;17.10;1.00
8248;DHT22;4164;49.844;8.830;2023-11-19T10:58:02;16.00;1.00
8248;DHT22;4164;49.844;8.830;2023-11-19T11:03:15;15.10;36.80
8248;DHT22;4164;49.844;8.830;2023-11-19T11:05:41;15.50;35.50
8248;DHT22;4164;49.844;8.830;2023-11-19T11:08:08;16.60;1.00
8248;DHT22;4164;49.844;8.830;2023-11-19T11:10:39;15.80;1.00
8248;DHT22;4164;49.844;8.830;2023-11-19T11:13:07;15.10;28.30
8248;DHT22;4164;49.844;8.830;2023-11-19T11:15:34;14.60;56.40
8248;DHT22;4164;49.844;8.830;2023-11-19T11:18:01;14.30;94.50
8248;DHT22;4164;49.844;8.830;2023-11-19T11:20:32;14.20;99.90
8248;DHT22;4164;49.844;8.830;2023-11-19T11:28:39;14.20;99.90
8248;DHT22;4164;49.844;8.830;2023-11-19T11:39:32;14.60;99.90
8248;DHT22;4164;49.844;8.830;2023-11-19T11:45:07;16.60;99.90
8248;DHT22;4164;49.844;8.830;2023-11-19T11:50:18;19.70;19.70
8248;DHT22;4164;49.844;8.830;2023-11-19T11:55:28;16.60;1.00
8248;DHT22;4164;49.844;8.830;2023-11-19T11:57:55;15.80;7.10
8248;DHT22;4164;49.844;8.830;2023-11-19T12:00:27;15.70;32.00
8248;DHT22;4164;49.844;8.830;2023-11-19T12:02:57;15.30;46.80
8248;DHT22;4164;49.844;8.830;2023-11-19T12:05:24;14.80;71.80
8248;DHT22;4164;49.844;8.830;2023-11-19T12:07:55;14.60;63.90
8248;DHT22;4164;49.844;8.830;2023-11-19T12:10:21;14.50;65.60
8248;DHT22;4164;49.844;8.830;2023-11-19T12:12:47;14.50;51.10
8248;DHT22;4164;49.844;8.830;2023-11-19T12:15:13;14.50;25.80
8248;DHT22;4164;49.844;8.830;2023-11-19T12:17:47;14.50;1.00
8248;DHT22;4164;49.844;8.830;2023-11-19T12:20:17;14.90;1.00
8248;DHT22;4164;49.844;8.830;2023-11-19T12:22:45;15.60;1.00
8248;DHT22;4164;49.844;8.830;2023-11-19T12:25:12;15.40;1.00
8248;DHT22;4164;49.844;8.830;2023-11-19T12:27:43;15.20;1.00
8248;DHT22;4164;49.844;8.830;2023-11-19T12:30:09;15.30;1.00
8248;DHT22;4164;49.844;8.830;2023-11-19T12:32:42;15.50;1.00
8248;DHT22;4164;49.844;8.830;2023-11-19T12:35:09;15.50;1.00
8248;DHT22;4164;49.844;8.830;2023-11-19T12:40:23;15.20;1.00
8248;DHT22;4164;49.844;8.830;2023-11-19T12:42:50;15.50;1.00
8248;DHT22;4164;49.844;8.830;2023-11-19T12:45:16;15.40;1.00
8248;DHT22;4164;49.844;8.830;2023-11-19T12:47:48;15.20;1.00
8248;DHT22;4164;49.844;8.830;2023-11-19T12:50:15;15.00;1.00
8248;DHT22;4164;49.844;8.830;2023-11-19T12:52:43;14.90;1.00
8248;DHT22;4164;49.844;8.830;2023-11-19T12:55:25;14.80;1.00
8248;DHT22;4164;49.844;8.830;2023-11-19T12:57:51;15.10;1.00
8248;DHT22;4164;49.844;8.830;2023-11-19T13:00:24;15.00;1.00
8248;DHT22;4164;49.844;8.830;2023-11-19T13:02:52;14.90;1.00
8248;DHT22;4164;49.844;8.830;2023-11-19T13:05:28;14.80;1.00
8248;DHT22;4164;49.844;8.830;2023-11-19T13:08:08;14.60;1.00
8248;DHT22;4164;49.844;8.830;2023-11-19T13:10:51;14.50;1.00
8248;DHT22;4164;49.844;8.830;2023-11-19T13:13:20;14.50;1.00
8248;DHT22;4164;49.844;8.830;2023-11-19T13:15:46;14.40;1.00
8248;DHT22;4164;49.844;8.830;2023-11-19T13:18:12;14.40;1.00
8248;DHT22;4164;49.844;8.830;2023-11-19T13:20:39;14.30;1.00
8248;DHT22;4164;49.844;8.830;2023-11-19T13:23:05;14.30;1.00
8248;DHT22;4164;49.844;8.830;2023-11-19T13:25:34;14.40;1.00
8248;DHT22;4164;49.844;8.830;2023-11-19T13:27:59;14.50;1.00
8248;DHT22;4164;49.844;8.830;2023-11-19T13:30:25;14.80;1.00
8248;DHT22;4164;49.844;8.830;2023-11-19T13:32:51;14.80;1.00
8248;DHT22;4164;49.844;8.830;2023-11-19T13:35:18;14.80;1.00
8248;DHT22;4164;49.844;8.830;2023-11-19T13:37:45;14.80;1.00
8248;DHT22;4164;49.844;8.830;2023-11-19T13:40:11;14.80;1.00
8248;DHT22;4164;49.844;8.830;2023-11-19T13:42:40;14.90;1.00
8248;DHT22;4164;49.844;8.830;2023-11-19T13:45:09;14.90;1.00
8248;DHT22;4164;49.844;8.830;2023-11-19T13:47:38;14.80;1.00
8248;DHT22;4164;49.844;8.830;2023-11-19T13:50:09;14.70;1.00
8248;DHT22;4164;49.844;8.830;2023-11-19T13:52:36;14.60;1.00
8248;DHT22;4164;49.844;8.830;2023-11-19T13:55:07;14.50;1.00
8248;DHT22;4164;49.844;8.830;2023-11-19T13:57:34;14.30;1.00
8248;DHT22;4164;49.844;8.830;2023-11-19T14:00:01;14.30;1.00
8248;DHT22;4164;49.844;8.830;2023-11-19T14:02:30;14.20;1.00
8248;DHT22;4164;49.844;8.830;2023-11-19T14:04:56;14.20;1.00
8248;DHT22;4164;49.844;8.830;2023-11-19T14:07:21;14.20;1.00
8248;DHT22;4164;49.844;8.830;2023-11-19T14:09:47;14.20;1.00
8248;DHT22;4164;49.844;8.830;2023-11-19T14:12:12;14.10;1.00
8248;DHT22;4164;49.844;8.830;2023-11-19T14:14:38;14.10;1.00
8248;DHT22;4164;49.844;8.830;2023-11-19T14:17:05;14.10;1.00
8248;DHT22;4164;49.844;8.830;2023-11-19T14:19:30;14.10;1.00
8248;DHT22;4164;49.844;8.830;2023-11-19T14:21:56;14.00;1.00
8248;DHT22;4164;49.844;8.830;2023-11-19T14:24:21;14.00;1.00
8248;DHT22;4164;49.844;8.830;2023-11-19T14:26:47;14.00;1.00
8248;DHT22;4164;49.844;8.830;2023-11-19T14:29:15;14.00;1.00
8248;DHT22;4164;49.844;8.830;2023-11-19T14:31:40;14.00;1.00
8248;DHT22;4164;49.844;8.830;2023-11-19T14:34:06;14.00;1.00
8248;DHT22;4164;49.844;8.830;2023-11-19T14:36:31;14.00;1.00
8248;DHT22;4164;49.844;8.830;2023-11-19T14:38:57;14.10;1.00
8248;DHT22;4164;49.844;8.830;2023-11-19T14:41:24;14.00;1.00
8248;DHT22;4164;49.844;8.830;2023-11-19T14:43:49;14.00;1.00
8248;DHT22;4164;49.844;8.830;2023-11-19T14:46:15;13.90;1.00
8248;DHT22;4164;49.844;8.830;2023-11-19T14:48:41;13.90;1.00
8248;DHT22;4164;49.844;8.830;2023-11-19T14:51:06;14.00;1.00
8248;DHT22;4164;49.844;8.830;2023-11-19T14:53:32;13.90;1.00
8248;DHT22;4164;49.844;8.830;2023-11-19T14:55:58;13.90;1.00
8248;DHT22;4164;49.844;8.830;2023-11-19T14:58:24;13.70;1.00
8248;DHT22;4164;49.844;8.830;2023-11-19T15:00:53;13.60;1.00
8248;DHT22;4164;49.844;8.830;2023-11-19T15:03:19;13.60;1.00
8248;DHT22;4164;49.844;8.830;2023-11-19T15:05:45;13.60;1.00
8248;DHT22;4164;49.844;8.830;2023-11-19T15:08:13;13.60;1.00
8248;DHT22;4164;49.844;8.830;2023-11-19T15:10:41;13.50;1.00
8248;DHT22;4164;49.844;8.830;2023-11-19T15:13:07;13.50;1.00
8248;DHT22;4164;49.844;8.830;2023-11-19T15:15:34;13.40;1.00
8248;DHT22;4164;49.844;8.830;2023-11-19T15:18:00;13.40;1.00
8248;DHT22;4164;49.844;8.830;2023-11-19T15:20:26;13.40;1.00
8248;DHT22;4164;49.844;8.830;2023-11-19T15:22:55;13.30;1.00
8248;DHT22;4164;49.844;8.830;2023-11-19T15:25:21;13.30;1.00
8248;DHT22;4164;49.844;8.830;2023-11-19T15:27:48;13.20;1.00
8248;DHT22;4164;49.844;8.830;2023-11-19T15:30:13;13.20;1.00
8248;DHT22;4164;49.844;8.830;2023-11-19T15:32:39;13.10;1.00
8248;DHT22;4164;49.844;8.830;2023-11-19T15:35:05;13.00;1.00
8248;DHT22;4164;49.844;8.830;2023-11-19T15:37:32;12.90;1.00
8248;DHT22;4164;49.844;8.830;2023-11-19T15:39:58;13.00;1.00
8248;DHT22;4164;49.844;8.830;2023-11-19T15:42:24;12.90;1.00
8248;DHT22;4164;49.844;8.830;2023-11-19T15:44:49;12.90;1.00
8248;DHT22;4164;49.844;8.830;2023-11-19T15:47:15;12.80;1.00
8248;DHT22;4164;49.844;8.830;2023-11-19T15:49:41;12.70;1.00
8248;DHT22;4164;49.844;8.830;2023-11-19T15:52:06;12.70;1.00
8248;DHT22;4164;49.844;8.830;2023-11-19T15:54:32;12.60;1.00
8248;DHT22;4164;49.844;8.830;2023-11-19T15:56:58;12.60;1.00
8248;DHT22;4164;49.844;8.830;2023-11-19T15:59:23;12.60;1.00
8248;DHT22;4164;49.844;8.830;2023-11-19T16:01:52;12.50;1.00
8248;DHT22;4164;49.844;8.830;2023-11-19T16:04:17;12.50;1.00
8248;DHT22;4164;49.844;8.830;2023-11-19T16:06:43;12.40;1.00
8248;DHT22;4164;49.844;8.830;2023-11-19T16:09:09;12.60;1.00
8248;DHT22;4164;49.844;8.830;2023-11-19T16:11:40;12.50;1.00
8248;DHT22;4164;49.844;8.830;2023-11-19T16:14:09;12.50;1.00
8248;DHT22;4164;49.844;8.830;2023-11-19T16:16:35;12.40;1.00
8248;DHT22;4164;49.844;8.830;2023-11-19T16:19:00;12.30;1.00
8248;DHT22;4164;49.844;8.830;2023-11-19T16:21:26;12.20;1.00
8248;DHT22;4164;49.844;8.830;2023-11-19T16:23:51;12.20;1.00
8248;DHT22;4164;49.844;8.830;2023-11-19T16:26:17;12.30;1.00
8248;DHT22;4164;49.844;8.830;2023-11-19T16:28:42;12.30;1.00
8248;DHT22;4164;49.844;8.830;2023-11-19T16:31:09;12.40;1.00
8248;DHT22;4164;49.844;8.830;2023-11-19T16:33:35;12.30;1.00
8248;DHT22;4164;49.844;8.830;2023-11-19T16:36:00;12.30;1.00
8248;DHT22;4164;49.844;8.830;2023-11-19T16:38:29;12.20;1.00
8248;DHT22;4164;49.844;8.830;2023-11-19T16:40:55;12.20;1.00